Time;durP1;ratioP1;P1;durP2;ratioP2;P2;SDS_P1;SDS_P2;PMS_P1;PMS_P2;Temp;Humidity;BMP_temperature;BMP_pressure;BME280_temperature;BME280_humidity;BME280_pressure;Samples;Min_cycle;Max_cycle;Signal;HPM_P1;HPM_P2
2022/05/21 00:00:27;;;;;;;5.93;5.72;;;;;;;15.62;67.28;100633.50;5036808;28;20108;-62
2022/05/21 00:02:53;;;;;;;6.07;5.88;;;;;;;15.59;67.16;100633.88;5032790;28;20025;-62
2022/05/21 00:05:22;;;;;;;5.90;5.70;;;;;;;15.62;67.69;100630.00;5032767;28;20025;-61
2022/05/21 00:07:47;;;;;;;6.40;6.10;;;;;;;15.47;67.99;100625.63;5032052;28;20025;-62
2022/05/21 00:10:15;;;;;;;5.72;5.53;;;;;;;15.38;68.58;100624.19;5018673;28;20595;-62
2022/05/21 00:12:42;;;;;;;6.43;6.13;;;;;;;15.30;69.19;100623.56;5032383;28;20056;-61
2022/05/21 00:15:10;;;;;;;6.00;5.80;;;;;;;15.34;69.34;100630.97;5032513;28;20033;-61
2022/05/21 00:17:36;;;;;;;6.00;5.80;;;;;;;15.25;70.31;100623.34;5032600;28;20112;-62
2022/05/21 00:20:01;;;;;;;6.00;5.80;;;;;;;15.23;71.40;100628.91;5032328;28;20108;-62
2022/05/21 00:22:27;;;;;;;5.93;5.72;;;;;;;15.19;71.01;100625.78;5032535;28;20060;-62
2022/05/21 00:24:53;;;;;;;5.88;5.68;;;;;;;15.23;69.68;100620.06;5032318;28;20036;-62
2022/05/21 00:27:18;;;;;;;6.10;5.90;;;;;;;15.06;71.22;100612.41;5031692;28;20038;-62
2022/05/21 00:29:44;;;;;;;6.25;6.00;;;;;;;14.86;70.15;100608.88;5032341;28;20111;-62
2022/05/21 00:32:10;;;;;;;6.13;5.93;;;;;;;14.83;70.00;100619.94;5032035;28;20480;-62
2022/05/21 00:34:36;;;;;;;6.07;5.88;;;;;;;14.83;69.94;100620.75;5025200;28;20044;-61
2022/05/21 00:37:02;;;;;;;5.95;5.75;;;;;;;14.84;70.85;100624.28;5032539;28;20472;-61
2022/05/21 00:39:28;;;;;;;6.00;5.80;;;;;;;14.72;71.06;100620.53;5032411;28;20120;-62
2022/05/21 00:41:54;;;;;;;6.40;6.10;;;;;;;14.75;71.29;100620.94;5029900;28;20136;-62
2022/05/21 00:44:20;;;;;;;6.05;5.85;;;;;;;14.63;71.75;100610.00;5031782;28;20634;-62
2022/05/21 00:46:47;;;;;;;6.20;6.00;;;;;;;14.61;71.36;100605.88;5031715;28;20029;-62
2022/05/21 00:49:34;;;;;;;6.10;5.90;;;;;;;14.58;71.71;100612.44;5031465;28;20029;-61
2022/05/21 00:52:30;;;;;;;6.38;6.07;;;;;;;14.64;71.10;100606.31;5031784;28;20235;-62
2022/05/21 00:55:00;;;;;;;6.10;5.90;;;;;;;14.67;70.62;100609.59;5027078;28;20485;-61
2022/05/21 00:57:40;;;;;;;6.10;5.90;;;;;;;14.64;70.09;100608.16;5032015;28;20048;-62
2022/05/21 01:00:15;;;;;;;6.00;5.80;;;;;;;14.60;70.05;100607.72;5018437;28;20512;-63
2022/05/21 01:02:53;;;;;;;6.30;6.00;;;;;;;14.56;70.09;100619.03;5031801;28;20026;-61
2022/05/21 01:05:22;;;;;;;6.13;5.93;;;;;;;14.58;69.89;100614.28;5031985;28;20017;-61
2022/05/21 01:07:52;;;;;;;6.00;5.80;;;;;;;14.53;69.37;100606.06;5031897;28;20025;-61
2022/05/21 01:10:20;;;;;;;6.32;6.03;;;;;;;14.58;68.79;100601.78;5031459;28;20094;-61
2022/05/21 01:12:50;;;;;;;6.32;6.03;;;;;;;14.55;68.36;100599.50;5031651;28;20029;-61
2022/05/21 01:15:20;;;;;;;5.95;5.75;;;;;;;14.57;68.24;100596.63;5030091;28;20025;-63
2022/05/21 01:17:46;;;;;;;6.30;6.00;;;;;;;14.57;67.78;100593.97;5031618;28;20485;-62
2022/05/21 01:20:19;;;;;;;6.25;6.00;;;;;;;14.55;68.06;100588.00;5031416;28;20029;-61
2022/05/21 01:22:49;;;;;;;6.40;6.10;;;;;;;14.53;68.46;100590.03;5031732;28;20409;-62
2022/05/21 01:25:18;;;;;;;6.18;5.97;;;;;;;14.46;69.11;100586.50;5025154;28;20045;-61
2022/05/21 01:27:46;;;;;;;6.50;6.20;;;;;;;14.45;69.27;100587.50;5031509;28;20496;-62
2022/05/21 01:30:16;;;;;;;6.07;5.88;;;;;;;14.41;69.02;100589.75;5031552;28;20392;-62
2022/05/21 01:32:46;;;;;;;6.30;6.00;;;;;;;14.41;69.02;100588.94;5031385;28;20064;-62
2022/05/21 01:35:12;;;;;;;5.90;5.70;;;;;;;14.40;68.38;100585.44;5017818;28;20477;-62
2022/05/21 01:37:39;;;;;;;6.30;6.00;;;;;;;14.37;69.10;100585.81;5021830;28;20038;-61
2022/05/21 01:40:07;;;;;;;6.07;5.88;;;;;;;14.26;69.57;100589.06;5027854;28;20025;-62
2022/05/21 01:42:34;;;;;;;6.28;5.97;;;;;;;14.15;70.31;100592.28;5027830;28;20104;-63
2022/05/21 01:44:59;;;;;;;5.95;5.75;;;;;;;14.12;70.61;100585.50;5031379;28;20038;-62
2022/05/21 01:47:25;;;;;;;6.07;5.88;;;;;;;14.14;70.58;100579.97;5031202;28;20388;-61
2022/05/21 01:49:51;;;;;;;6.40;6.10;;;;;;;14.15;70.24;100577.09;5031536;28;20030;-62
2022/05/21 01:52:17;;;;;;;6.40;6.10;;;;;;;14.16;70.08;100576.06;5031380;28;20025;-61
2022/05/21 01:54:43;;;;;;;6.10;5.90;;;;;;;14.15;69.65;100574.41;5031589;28;20404;-62
2022/05/21 01:57:09;;;;;;;6.05;5.85;;;;;;;14.06;69.38;100563.09;5031487;28;20029;-61
2022/05/21 01:59:35;;;;;;;6.00;5.80;;;;;;;14.17;68.81;100584.88;5031150;28;20037;-61
2022/05/21 02:02:01;;;;;;;6.22;5.93;;;;;;;14.17;68.04;100575.03;5034072;28;20029;-62
2022/05/21 02:04:27;;;;;;;6.45;6.15;;;;;;;14.18;67.87;100573.22;5034417;28;20043;-62
2022/05/21 02:06:52;;;;;;;6.40;6.10;;;;;;;14.21;67.75;100575.47;5035021;28;20021;-62
2022/05/21 02:09:18;;;;;;;6.28;6.00;;;;;;;14.12;68.18;100566.00;5034940;28;20049;-62
2022/05/21 02:11:44;;;;;;;6.38;6.07;;;;;;;14.14;68.59;100572.78;5034548;28;20053;-61
2022/05/21 02:14:11;;;;;;;6.10;5.90;;;;;;;14.15;68.27;100576.28;5034653;28;20370;-62
2022/05/21 02:16:36;;;;;;;6.35;6.07;;;;;;;14.16;68.41;100580.56;5034357;28;20436;-61
2022/05/21 02:19:04;;;;;;;6.00;5.80;;;;;;;14.22;67.77;100574.47;5034610;28;20029;-61
2022/05/21 02:21:31;;;;;;;6.18;5.95;;;;;;;14.26;68.32;100576.56;5034686;28;20472;-63
2022/05/21 02:23:57;;;;;;;6.20;5.97;;;;;;;14.21;68.75;100578.97;5035218;28;20595;-62
2022/05/21 02:26:23;;;;;;;6.00;5.80;;;;;;;14.28;67.46;100579.00;5041759;28;20033;-61
2022/05/21 02:28:49;;;;;;;5.97;5.78;;;;;;;14.26;67.68;100575.72;5034380;28;20021;-62
2022/05/21 02:31:14;;;;;;;6.22;6.00;;;;;;;14.29;68.60;100581.47;5034531;28;20022;-62
2022/05/21 02:33:41;;;;;;;6.25;6.00;;;;;;;14.22;69.99;100579.81;5034169;28;20039;-62
2022/05/21 02:36:07;;;;;;;6.05;5.85;;;;;;;14.26;70.26;100581.06;5034721;28;20104;-62
2022/05/21 02:41:17;;;;;;;6.05;5.85;;;;;;;14.56;69.83;100590.47;5026932;28;20492;-62
2022/05/21 02:43:43;;;;;;;6.40;6.10;;;;;;;14.70;69.60;100591.34;5034123;28;20037;-62
2022/05/21 02:46:12;;;;;;;5.93;5.72;;;;;;;14.90;68.54;100607.41;5032351;28;20025;-63
2022/05/21 02:48:38;;;;;;;6.05;5.85;;;;;;;15.12;67.61;100605.44;5034476;28;20061;-61
2022/05/21 02:51:04;;;;;;;6.10;5.90;;;;;;;15.08;68.23;100609.53;5033796;28;20564;-62
2022/05/21 02:53:30;;;;;;;6.45;6.15;;;;;;;15.34;67.20;100601.56;5033767;28;20084;-62
2022/05/21 02:55:57;;;;;;;6.10;5.90;;;;;;;15.56;66.53;100601.38;5034012;28;20021;-62
2022/05/21 02:58:23;;;;;;;5.95;5.75;;;;;;;15.74;65.10;100601.63;5033908;28;20021;-62
2022/05/21 03:00:49;;;;;;;6.10;5.90;;;;;;;16.15;63.89;100604.00;5033934;28;20030;-62
2022/05/21 03:03:15;;;;;;;6.40;6.10;;;;;;;16.24;63.88;100608.13;5033794;28;20104;-61
2022/05/21 03:05:42;;;;;;;6.05;5.85;;;;;;;16.77;61.85;100605.28;5034152;28;20067;-61
2022/05/21 03:10:53;;;;;;;6.47;6.18;;;;;;;18.23;56.53;100596.16;5032745;28;20036;-63
2022/05/21 03:13:18;;;;;;;6.13;5.93;;;;;;;19.91;50.90;100591.75;5032852;28;20121;-61
2022/05/21 03:15:44;;;;;;;6.43;6.13;;;;;;;21.24;47.10;100588.81;5033775;28;20029;-62
2022/05/21 03:18:11;;;;;;;6.55;6.25;;;;;;;22.24;43.56;100581.72;5020007;28;20413;-62
2022/05/21 03:20:38;;;;;;;6.40;6.10;;;;;;;22.67;41.96;100588.19;5020797;28;20052;-63
2022/05/21 03:23:04;;;;;;;6.80;6.50;;;;;;;23.26;40.35;100588.28;5033483;28;20033;-63
2022/05/21 03:25:30;;;;;;;6.57;6.28;;;;;;;23.76;39.10;100587.09;5031390;28;20025;-63
2022/05/21 03:27:55;;;;;;;6.65;6.35;;;;;;;24.49;37.11;100579.94;5033429;28;20437;-63
2022/05/21 03:30:23;;;;;;;6.60;6.30;;;;;;;25.08;36.66;100582.28;5033654;28;20030;-62
2022/05/21 03:32:49;;;;;;;6.60;6.30;;;;;;;25.16;36.83;100585.53;5033143;28;20412;-62
2022/05/21 03:35:19;;;;;;;6.53;6.22;;;;;;;25.29;36.32;100576.88;5023455;28;20041;-62
2022/05/21 03:37:45;;;;;;;6.80;6.50;;;;;;;25.00;36.39;100577.34;5031580;28;20565;-62
2022/05/21 03:40:14;;;;;;;6.65;6.35;;;;;;;26.01;34.79;100577.63;5033017;28;20117;-62
2022/05/21 03:42:40;;;;;;;6.57;6.28;;;;;;;26.31;33.42;100576.72;5028015;28;20044;-63
2022/05/21 03:45:08;;;;;;;6.78;6.47;;;;;;;27.19;32.68;100570.56;5032898;28;20378;-62
2022/05/21 03:47:34;;;;;;;6.78;6.47;;;;;;;28.25;30.55;100571.44;5032911;28;20014;-63
2022/05/21 03:50:00;;;;;;;6.80;6.50;;;;;;;29.27;28.71;100566.50;5033065;28;20032;-63
2022/05/21 03:52:25;;;;;;;6.70;6.40;;;;;;;28.76;29.13;100569.97;5033180;28;20469;-63
2022/05/21 03:54:51;;;;;;;6.90;6.60;;;;;;;29.27;29.12;100556.38;5032662;28;20032;-62
2022/05/21 03:57:17;;;;;;;6.93;6.63;;;;;;;29.25;29.06;100553.13;5033057;28;20083;-63
2022/05/21 03:59:43;;;;;;;6.90;6.60;;;;;;;30.28;28.00;100555.66;5033016;28;20029;-63
2022/05/21 04:02:09;;;;;;;6.90;6.60;;;;;;;30.29;27.43;100556.44;5032816;28;20033;-63
2022/05/21 04:04:36;;;;;;;6.93;6.63;;;;;;;31.05;26.33;100554.75;5031278;28;20079;-63
2022/05/21 04:07:02;;;;;;;6.90;6.60;;;;;;;30.02;27.20;100551.75;5032824;28;20477;-62
2022/05/21 04:09:28;;;;;;;6.90;6.60;;;;;;;31.02;26.22;100549.91;5032595;28;20044;-62
2022/05/21 04:11:55;;;;;;;6.80;6.50;;;;;;;30.74;26.02;100541.78;5032571;28;20041;-62
2022/05/21 04:14:27;;;;;;;6.70;6.40;;;;;;;31.07;25.06;100542.38;5032770;28;20025;-62
2022/05/21 04:16:52;;;;;;;6.82;6.53;;;;;;;32.66;23.62;100542.41;5027882;28;20481;-63
2022/05/21 04:19:18;;;;;;;7.00;6.70;;;;;;;30.94;25.42;100537.75;5032435;28;20112;-64
2022/05/21 04:21:43;;;;;;;6.97;6.68;;;;;;;31.85;24.60;100542.03;5032608;28;20033;-62
2022/05/21 04:24:09;;;;;;;6.88;6.57;;;;;;;31.51;24.69;100542.66;5030173;28;20029;-63
2022/05/21 04:26:34;;;;;;;6.85;6.55;;;;;;;32.23;23.85;100536.03;5032421;28;20025;-62
2022/05/21 04:29:00;;;;;;;7.30;7.00;;;;;;;31.77;24.31;100542.78;5032008;28;20033;-62
2022/05/21 04:31:25;;;;;;;6.90;6.60;;;;;;;32.38;23.74;100546.56;5026457;28;20026;-63
2022/05/21 04:33:51;;;;;;;7.00;6.70;;;;;;;33.74;22.25;100528.69;5027363;28;20373;-63
2022/05/21 04:36:19;;;;;;;6.95;6.65;;;;;;;32.03;24.76;100515.50;5032219;28;20111;-63
2022/05/21 04:38:47;;;;;;;6.90;6.60;;;;;;;31.97;24.94;100517.56;5018378;28;20371;-63
2022/05/21 04:41:12;;;;;;;7.00;6.70;;;;;;;32.30;24.37;100519.88;5031118;28;20101;-62
2022/05/21 04:43:38;;;;;;;7.00;6.70;;;;;;;31.46;24.35;100518.13;5031682;28;20467;-63
2022/05/21 04:46:04;;;;;;;7.15;6.85;;;;;;;32.45;23.20;100528.50;5031912;28;20056;-63
2022/05/21 04:48:30;;;;;;;7.20;6.90;;;;;;;32.97;23.74;100534.03;5031641;28;20104;-63
2022/05/21 04:51:00;;;;;;;6.90;6.60;;;;;;;33.03;23.33;100537.41;5032009;28;20060;-63
2022/05/21 04:53:26;;;;;;;7.10;6.80;;;;;;;33.86;22.76;100537.06;5031939;28;20052;-63
2022/05/21 04:55:52;;;;;;;7.10;6.80;;;;;;;32.84;23.58;100536.94;5018628;28;20504;-63
2022/05/21 04:58:17;;;;;;;7.20;6.90;;;;;;;32.38;24.24;100530.09;5031564;28;20058;-63
2022/05/21 05:00:43;;;;;;;7.10;6.80;;;;;;;31.61;25.25;100524.00;5031885;28;20040;-63
2022/05/21 05:03:16;;;;;;;7.20;6.90;;;;;;;33.25;23.37;100517.16;5031828;28;20443;-63
2022/05/21 05:05:43;;;;;;;7.10;6.80;;;;;;;32.85;24.24;100517.41;5031973;28;20427;-62
2022/05/21 05:08:09;;;;;;;7.05;6.75;;;;;;;33.14;23.48;100513.16;5031590;28;20044;-62
2022/05/21 05:10:38;;;;;;;7.30;7.00;;;;;;;33.69;23.07;100507.66;5031906;28;20385;-63
2022/05/21 05:13:05;;;;;;;7.22;6.93;;;;;;;33.03;24.04;100498.94;5031400;28;20479;-64
2022/05/21 05:15:31;;;;;;;7.10;6.80;;;;;;;32.71;24.20;100503.00;5031252;28;20026;-62
2022/05/21 05:18:06;;;;;;;7.13;6.82;;;;;;;34.20;22.75;100497.53;5031722;28;20022;-63
2022/05/21 05:20:32;;;;;;;6.93;6.63;;;;;;;33.99;22.42;100504.94;5031432;28;20022;-63
2022/05/21 05:22:58;;;;;;;7.10;6.80;;;;;;;34.94;21.60;100507.03;5018884;28;20516;-63
2022/05/21 05:25:24;;;;;;;6.95;6.65;;;;;;;34.23;22.23;100491.38;5031302;28;20013;-63
2022/05/21 05:27:50;;;;;;;7.15;6.85;;;;;;;34.58;21.42;100489.16;5029912;28;20041;-63
2022/05/21 05:30:18;;;;;;;7.15;6.85;;;;;;;33.95;22.53;100487.50;5031581;28;20031;-63
2022/05/21 05:32:44;;;;;;;6.90;6.60;;;;;;;33.16;22.92;100486.94;5031467;28;20088;-63
2022/05/21 05:35:11;;;;;;;6.90;6.60;;;;;;;35.21;21.43;100491.84;5030074;28;20033;-64
2022/05/21 05:37:37;;;;;;;7.00;6.70;;;;;;;35.39;20.81;100473.94;5035770;28;20109;-64
2022/05/21 05:40:05;;;;;;;7.00;6.70;;;;;;;34.45;21.56;100472.91;5025789;28;20448;-63
2022/05/21 05:42:30;;;;;;;7.13;6.82;;;;;;;35.23;21.42;100475.75;5033907;28;20079;-63
2022/05/21 05:44:56;;;;;;;7.20;6.90;;;;;;;36.13;20.80;100480.28;5035101;28;20436;-64
2022/05/21 05:47:22;;;;;;;7.20;6.90;;;;;;;35.33;19.74;100468.97;5035092;28;20061;-63
2022/05/21 05:49:47;;;;;;;7.20;6.90;;;;;;;35.50;20.19;100473.53;5035372;28;20028;-64
2022/05/21 05:52:13;;;;;;;7.07;6.78;;;;;;;36.41;20.03;100476.81;5033592;28;20512;-63
2022/05/21 05:54:38;;;;;;;7.10;6.80;;;;;;;36.77;18.54;100475.88;5034905;28;20033;-62
2022/05/21 05:57:09;;;;;;;6.97;6.68;;;;;;;36.25;18.03;100485.00;5035367;28;20021;-63
2022/05/21 05:59:48;;;;;;;6.95;6.65;;;;;;;37.68;16.79;100484.22;5022975;28;20037;-64
2022/05/21 06:05:03;;;;;;;7.20;6.90;;;;;;;36.32;18.07;100485.22;5015499;28;20079;-64
2022/05/21 06:07:29;;;;;;;7.20;6.90;;;;;;;34.92;19.67;100475.47;5028921;28;20032;-63
2022/05/21 06:10:01;;;;;;;6.95;6.65;;;;;;;35.73;18.25;100482.97;5034615;28;20026;-62
2022/05/21 06:12:28;;;;;;;6.90;6.60;;;;;;;35.37;18.74;100483.72;5034587;28;20025;-63
2022/05/21 06:14:53;;;;;;;6.90;6.60;;;;;;;35.58;18.64;100473.41;5034379;28;20117;-62
2022/05/21 06:17:19;;;;;;;7.00;6.70;;;;;;;34.85;19.63;100465.75;5034341;28;20148;-62
2022/05/21 06:19:44;;;;;;;7.20;6.90;;;;;;;35.05;19.29;100466.06;5034774;28;20049;-63
2022/05/21 06:22:10;;;;;;;7.05;6.75;;;;;;;34.32;20.14;100456.31;5020825;28;20361;-62
2022/05/21 06:24:36;;;;;;;6.90;6.60;;;;;;;36.11;18.71;100457.75;5029085;28;20029;-63
2022/05/21 06:27:03;;;;;;;6.88;6.57;;;;;;;35.00;19.45;100450.56;5023731;28;20104;-63
2022/05/21 06:29:29;;;;;;;7.00;6.70;;;;;;;34.61;20.38;100438.13;5034162;28;20108;-64
2022/05/21 06:31:54;;;;;;;7.05;6.75;;;;;;;33.63;21.09;100425.66;5034660;28;20183;-63
2022/05/21 06:34:20;;;;;;;7.03;6.72;;;;;;;33.22;21.39;100425.16;5037667;28;20029;-63
2022/05/21 06:36:45;;;;;;;7.28;6.97;;;;;;;33.24;21.60;100427.56;5036364;28;20448;-62
2022/05/21 06:39:10;;;;;;;7.13;6.82;;;;;;;33.16;22.04;100431.97;5033143;28;20060;-63
2022/05/21 06:41:36;;;;;;;7.00;6.70;;;;;;;33.19;22.57;100425.00;5033980;28;20049;-64
2022/05/21 06:44:01;;;;;;;6.95;6.65;;;;;;;33.78;21.70;100430.56;5019752;28;20424;-63
2022/05/21 06:46:27;;;;;;;7.00;6.70;;;;;;;32.64;22.89;100432.06;5033841;28;20025;-63
2022/05/21 06:48:54;;;;;;;6.90;6.60;;;;;;;33.81;21.31;100422.47;5033153;28;20136;-62
2022/05/21 06:51:19;;;;;;;7.03;6.72;;;;;;;34.13;21.39;100419.38;5033446;28;20557;-63
2022/05/21 06:53:45;;;;;;;6.95;6.65;;;;;;;32.34;23.17;100405.59;5021493;28;20029;-63
2022/05/21 06:56:13;;;;;;;7.00;6.70;;;;;;;32.40;23.41;100404.31;5033845;28;20025;-63
2022/05/21 06:58:39;;;;;;;7.07;6.78;;;;;;;31.99;23.62;100400.06;5034205;28;20049;-63
2022/05/21 07:01:05;;;;;;;7.10;6.80;;;;;;;32.28;23.44;100404.91;5032718;28;20018;-64
2022/05/21 07:03:31;;;;;;;7.20;6.90;;;;;;;33.19;22.76;100400.25;5034197;28;20025;-63
2022/05/21 07:08:41;;;;;;;;;;;;;;;33.55;22.42;100394.28;5034437;28;20032;-63
2022/05/21 07:11:06;;;;;;;7.20;6.90;;;;;;;31.64;23.88;100378.00;5033953;28;19909;-64
2022/05/21 07:13:32;;;;;;;7.10;6.80;;;;;;;32.29;23.37;100375.53;5033385;28;20030;-63
2022/05/21 07:15:59;;;;;;;7.10;6.80;;;;;;;33.93;21.68;100385.19;5033646;28;20484;-63
2022/05/21 07:18:27;;;;;;;7.20;6.90;;;;;;;35.03;21.09;100375.41;5033358;28;20036;-63
2022/05/21 07:20:56;;;;;;;7.32;7.03;;;;;;;33.50;21.97;100375.25;5028563;28;20029;-63
2022/05/21 07:23:23;;;;;;;7.15;6.85;;;;;;;33.84;21.26;100367.91;5033189;28;20373;-63
2022/05/21 07:25:49;;;;;;;6.88;6.57;;;;;;;33.84;21.64;100370.66;5033325;28;20439;-63
2022/05/21 07:28:16;;;;;;;6.95;6.65;;;;;;;33.04;22.47;100371.38;5036350;28;20021;-63
2022/05/21 07:30:43;;;;;;;6.90;6.60;;;;;;;32.92;21.82;100363.03;5033630;28;20392;-64
2022/05/21 07:33:12;;;;;;;7.25;6.95;;;;;;;34.16;21.01;100361.69;5033408;28;20100;-63
2022/05/21 07:35:38;;;;;;;7.05;6.75;;;;;;;33.77;21.54;100360.19;5033329;28;20021;-64
2022/05/21 07:38:05;;;;;;;6.90;6.60;;;;;;;32.58;23.10;100339.16;5033540;28;20039;-63
2022/05/21 07:40:30;;;;;;;6.97;6.68;;;;;;;32.62;23.52;100346.44;5032968;28;20038;-62
2022/05/21 07:42:56;;;;;;;6.95;6.65;;;;;;;32.07;23.86;100333.38;5032957;28;20022;-63
2022/05/21 07:45:22;;;;;;;7.00;6.70;;;;;;;31.14;25.35;100338.31;5032686;28;20048;-62
2022/05/21 07:47:49;;;;;;;7.10;6.80;;;;;;;31.15;25.21;100315.31;5032958;28;20593;-64
2022/05/21 07:50:15;;;;;;;6.85;6.55;;;;;;;30.96;25.38;100302.66;5032807;28;20091;-62
2022/05/21 07:52:40;;;;;;;7.10;6.80;;;;;;;30.95;25.87;100295.56;5032769;28;20061;-65
2022/05/21 07:55:07;;;;;;;6.90;6.60;;;;;;;30.39;26.83;100307.97;5032765;28;20036;-63
2022/05/21 07:57:32;;;;;;;6.88;6.57;;;;;;;31.17;25.79;100315.78;5032774;28;20030;-63
2022/05/21 07:59:58;;;;;;;6.68;6.38;;;;;;;31.83;24.51;100314.66;5032491;28;20048;-63
2022/05/21 08:02:23;;;;;;;6.90;6.60;;;;;;;31.11;25.04;100330.75;5032864;28;20029;-63
2022/05/21 08:04:49;;;;;;;6.72;6.43;;;;;;;30.79;25.70;100324.50;5032776;28;20032;-63
2022/05/21 08:07:16;;;;;;;7.00;6.70;;;;;;;30.73;26.13;100307.38;5032857;28;20025;-63
2022/05/21 08:09:42;;;;;;;6.90;6.60;;;;;;;29.50;27.27;100292.25;5019760;28;20025;-63
2022/05/21 08:12:08;;;;;;;6.63;6.32;;;;;;;29.45;26.64;100295.88;5032467;28;20040;-63
2022/05/21 08:14:34;;;;;;;6.88;6.57;;;;;;;28.76;28.11;100303.22;5032888;28;20105;-62
2022/05/21 08:17:00;;;;;;;6.95;6.65;;;;;;;28.75;28.15;100309.81;5032297;28;20095;-64
2022/05/21 08:19:26;;;;;;;7.10;6.80;;;;;;;29.48;27.43;100326.44;5032403;28;20056;-64
2022/05/21 08:21:51;;;;;;;6.90;6.60;;;;;;;30.47;26.00;100322.81;5032581;28;20053;-64
2022/05/21 08:27:02;;;;;;;7.00;6.70;;;;;;;31.55;24.84;100313.31;5032529;28;20088;-63
2022/05/21 08:29:33;;;;;;;6.85;6.55;;;;;;;31.13;24.83;100312.84;5030862;28;20114;-63
2022/05/21 08:32:00;;;;;;;6.95;6.65;;;;;;;30.71;25.78;100303.34;5032001;28;20079;-63
2022/05/21 08:34:26;;;;;;;7.03;6.72;;;;;;;31.67;24.88;100305.28;5032173;28;20559;-62
2022/05/21 08:36:53;;;;;;;6.78;6.47;;;;;;;30.66;25.68;100304.28;5032236;28;20021;-64
2022/05/21 08:39:20;;;;;;;6.90;6.60;;;;;;;31.53;24.34;100294.44;5031994;28;20048;-63
2022/05/21 08:41:58;;;;;;;6.90;6.60;;;;;;;31.19;24.83;100295.16;5032123;28;20033;-63
2022/05/21 08:44:53;;;;;;;6.65;6.35;;;;;;;31.06;25.22;100290.59;5031984;28;20072;-63
2022/05/21 08:47:29;;;;;;;6.82;6.53;;;;;;;31.27;25.62;100286.16;5029796;28;20479;-64
2022/05/21 08:50:00;;;;;;;6.78;6.47;;;;;;;31.12;25.48;100289.31;5032192;28;20033;-62
2022/05/21 08:52:42;;;;;;;6.80;6.50;;;;;;;31.23;25.17;100289.88;5032146;28;20032;-62
2022/05/21 08:55:12;;;;;;;6.82;6.53;;;;;;;31.47;24.44;100278.47;5018437;28;20055;-62
2022/05/21 08:57:48;;;;;;;6.72;6.43;;;;;;;31.22;24.78;100266.31;5031852;28;20400;-63
2022/05/21 09:00:21;;;;;;;6.90;6.60;;;;;;;30.39;25.45;100261.44;5031895;28;20025;-63
2022/05/21 09:02:47;;;;;;;6.57;6.28;;;;;;;30.52;25.48;100265.22;5031799;28;20021;-64
2022/05/21 09:05:17;;;;;;;6.70;6.40;;;;;;;31.20;24.94;100263.06;5031809;28;20116;-63
2022/05/21 09:08:08;;;;;;;6.88;6.57;;;;;;;32.07;24.29;100255.75;5031474;28;20025;-63
2022/05/21 09:10:52;;;;;;;6.90;6.60;;;;;;;32.05;24.39;100238.81;5030677;28;20026;-63
2022/05/21 09:13:27;;;;;;;6.68;6.38;;;;;;;30.70;25.21;100242.31;5026366;28;20176;-63
2022/05/21 09:18:37;;;;;;;6.60;6.30;;;;;;;30.48;25.61;100221.25;5024998;28;20116;-63
2022/05/21 09:21:10;;;;;;;6.70;6.40;;;;;;;31.24;25.13;100229.25;5031485;28;20509;-63
2022/05/21 09:23:57;;;;;;;6.80;6.50;;;;;;;31.55;24.45;100240.09;5031692;28;20022;-63
2022/05/21 09:26:51;;;;;;;6.63;6.32;;;;;;;31.74;23.45;100228.81;5028025;28;20096;-63
2022/05/21 09:29:24;;;;;;;6.80;6.50;;;;;;;31.17;24.15;100212.44;5031175;28;20465;-63
2022/05/21 09:31:51;;;;;;;6.63;6.32;;;;;;;30.46;24.41;100208.97;5031709;28;20034;-63
2022/05/21 09:34:26;;;;;;;6.80;6.50;;;;;;;31.33;23.26;100196.38;5031467;28;20051;-62
2022/05/21 09:36:52;;;;;;;6.70;6.40;;;;;;;31.20;23.28;100198.09;5031321;28;20071;-62
2022/05/21 09:39:39;;;;;;;6.53;6.22;;;;;;;30.64;24.68;100196.97;5031660;28;20033;-63
2022/05/21 09:45:32;;;;;;;6.70;6.40;;;;;;;31.02;24.03;100180.84;5009019;28;20042;-64
2022/05/21 09:48:07;;;;;;;6.80;6.50;;;;;;;30.86;24.31;100190.63;5026824;28;20447;-63
2022/05/21 09:50:59;;;;;;;6.60;6.30;;;;;;;30.67;24.61;100188.16;5031567;28;20080;-62
2022/05/21 09:53:39;;;;;;;6.65;6.35;;;;;;;31.23;24.00;100158.34;5027016;28;20108;-64
2022/05/21 09:56:34;;;;;;;6.90;6.60;;;;;;;30.83;24.69;100171.28;5031280;28;20061;-63
2022/05/21 09:59:18;;;;;;;6.68;6.38;;;;;;;31.22;24.99;100164.91;5018018;28;20508;-63
2022/05/21 10:01:45;;;;;;;6.82;6.53;;;;;;;31.41;24.62;100173.63;5031713;28;20117;-63
2022/05/21 10:04:22;;;;;;;6.78;6.47;;;;;;;31.00;25.28;100161.19;5031233;28;20029;-63
2022/05/21 10:13:08;;;;;;;6.70;6.40;;;;;;;30.71;25.41;100169.97;5031057;28;20567;-63
2022/05/21 10:15:43;;;;;;;6.25;6.03;;;;;;;31.02;24.66;100147.16;5018040;28;20503;-63
2022/05/21 10:18:39;;;;;;;6.60;6.30;;;;;;;31.30;24.12;100153.19;5031310;28;20110;-64
2022/05/21 10:21:36;;;;;;;6.70;6.40;;;;;;;31.46;23.78;100140.59;5030910;28;20104;-64
2022/05/21 10:24:09;;;;;;;6.78;6.47;;;;;;;31.17;24.10;100129.44;5033657;28;20025;-62
2022/05/21 10:26:43;;;;;;;6.72;6.43;;;;;;;31.28;24.20;100144.44;5035059;28;20040;-62
2022/05/21 10:29:25;;;;;;;6.78;6.47;;;;;;;31.58;23.89;100138.00;5034147;28;20472;-63
2022/05/21 10:32:18;;;;;;;6.85;6.55;;;;;;;31.32;24.30;100137.22;5034510;28;20489;-62
2022/05/21 10:35:02;;;;;;;6.63;6.32;;;;;;;31.35;24.23;100129.13;5016718;28;20052;-63
2022/05/21 10:37:55;;;;;;;6.75;6.45;;;;;;;31.31;24.29;100122.69;5034776;28;20037;-63
2022/05/21 10:40:35;;;;;;;6.75;6.45;;;;;;;31.56;23.84;100117.50;5033985;28;20021;-63
2022/05/21 10:43:26;;;;;;;6.63;6.32;;;;;;;31.71;23.21;100113.44;5023366;28;20087;-63
2022/05/21 10:46:19;;;;;;;6.80;6.50;;;;;;;31.40;24.07;100103.50;5033595;28;20136;-63
2022/05/21 10:48:44;;;;;;;6.70;6.40;;;;;;;31.82;23.97;100103.78;5021182;28;20041;-63
2022/05/21 10:51:47;;;;;;;6.45;6.15;;;;;;;31.14;23.98;100099.94;5030823;28;20053;-63
2022/05/21 10:54:25;;;;;;;6.55;6.25;;;;;;;31.09;24.27;100093.50;5025692;28;20072;-63
2022/05/21 10:57:19;;;;;;;6.60;6.30;;;;;;;31.18;23.98;100088.00;5024232;28;20061;-63
2022/05/21 11:00:02;;;;;;;6.80;6.50;;;;;;;31.46;23.88;100085.75;5020241;28;20076;-63
2022/05/21 11:02:59;;;;;;;6.60;6.30;;;;;;;31.70;24.26;100087.16;5033793;28;20507;-64
2022/05/21 11:05:37;;;;;;;6.60;6.30;;;;;;;31.52;23.49;100080.91;5033221;28;20255;-64
2022/05/21 11:08:17;;;;;;;6.50;6.20;;;;;;;31.54;23.87;100073.97;5033781;28;20028;-62
2022/05/21 11:11:21;;;;;;;6.65;6.35;;;;;;;32.02;23.26;100074.81;5033869;28;20409;-63
2022/05/21 11:14:04;;;;;;;6.97;6.67;;;;;;;32.47;23.16;100077.06;5003044;28;20076;-63
2022/05/21 11:17:08;;;;;;;6.60;6.30;;;;;;;32.81;22.92;100068.56;5031893;28;20057;-63
2022/05/21 11:19:43;;;;;;;6.70;6.40;;;;;;;32.78;22.98;100063.75;5046973;28;20673;-62
2022/05/21 11:22:31;;;;;;;6.88;6.57;;;;;;;32.79;23.26;100048.06;5029771;28;20283;-62
2022/05/21 11:25:07;;;;;;;6.78;6.47;;;;;;;33.16;22.91;100047.13;5032874;28;20096;-63
2022/05/21 11:27:41;;;;;;;6.57;6.28;;;;;;;33.50;22.23;100051.53;5033139;28;20025;-63
2022/05/21 11:30:16;;;;;;;6.63;6.32;;;;;;;32.59;22.90;100047.72;5033191;28;20025;-62
2022/05/21 11:38:28;;;;;;;6.50;6.20;;;;;;;32.81;22.44;100029.31;5033262;28;20282;-63
2022/05/21 11:43:54;;;;;;;6.70;6.40;;;;;;;32.70;22.11;100010.50;5033208;28;20032;-64
2022/05/21 11:46:34;;;;;;;6.80;6.50;;;;;;;32.63;22.49;100012.16;5032967;28;20056;-63
2022/05/21 11:49:31;;;;;;;6.60;6.30;;;;;;;32.33;22.82;100014.97;5027122;28;20033;-62
2022/05/21 11:51:58;;;;;;;6.60;6.30;;;;;;;32.71;22.98;100016.78;5030866;28;20499;-63
2022/05/21 11:54:45;;;;;;;6.80;6.50;;;;;;;32.41;22.33;100013.28;5024910;28;20033;-62
2022/05/21 11:57:32;;;;;;;6.65;6.35;;;;;;;32.67;22.54;100008.41;5032608;28;20029;-63
2022/05/21 12:00:00;;;;;;;6.80;6.50;;;;;;;32.89;22.11;99992.72;5032620;28;20079;-63
2022/05/21 12:02:31;;;;;;;6.80;6.50;;;;;;;32.77;22.40;99998.16;5029930;28;20064;-62
2022/05/21 12:05:11;;;;;;;6.78;6.47;;;;;;;32.60;22.38;99994.41;5023201;28;20112;-64
2022/05/21 12:07:48;;;;;;;6.60;6.30;;;;;;;32.51;22.92;99988.19;5032281;28;20021;-64
2022/05/21 12:10:24;;;;;;;6.80;6.50;;;;;;;32.46;22.85;99993.84;5032224;28;20064;-63
2022/05/21 12:13:11;;;;;;;6.75;6.45;;;;;;;32.28;23.31;100000.59;5029483;28;20061;-64
2022/05/21 12:15:41;;;;;;;6.70;6.40;;;;;;;32.25;23.20;99998.50;5032358;28;20029;-62